sensor_id;sensor_type;location;lat;lon;timestamp;P1;durP1;ratioP1;P2;durP2;ratioP2
2049;SDS011;8478;49.208;8.806;2023-01-25T00:02:01;15.40;;;13.90;;
2049;SDS011;8478;49.208;8.806;2023-01-25T00:04:27;14.43;;;13.13;;
2049;SDS011;8478;49.208;8.806;2023-01-25T00:06:53;15.30;;;13.90;;
2049;SDS011;8478;49.208;8.806;2023-01-25T00:09:19;14.33;;;13.00;;
2049;SDS011;8478;49.208;8.806;2023-01-25T00:11:46;19.50;;;17.27;;
2049;SDS011;8478;49.208;8.806;2023-01-25T00:14:11;16.07;;;14.67;;
2049;SDS011;8478;49.208;8.806;2023-01-25T00:16:38;15.40;;;13.97;;
2049;SDS011;8478;49.208;8.806;2023-01-25T00:19:04;15.57;;;14.03;;
2049;SDS011;8478;49.208;8.806;2023-01-25T00:21:30;16.17;;;14.50;;
2049;SDS011;8478;49.208;8.806;2023-01-25T00:23:58;14.73;;;13.43;;
2049;SDS011;8478;49.208;8.806;2023-01-25T00:26:23;15.50;;;13.90;;
2049;SDS011;8478;49.208;8.806;2023-01-25T00:28:52;15.50;;;14.03;;
2049;SDS011;8478;49.208;8.806;2023-01-25T00:31:53;13.40;;;12.20;;
2049;SDS011;8478;49.208;8.806;2023-01-25T00:36:56;13.97;;;12.50;;
2049;SDS011;8478;49.208;8.806;2023-01-25T00:39:25;14.87;;;13.40;;
2049;SDS011;8478;49.208;8.806;2023-01-25T00:41:51;14.10;;;12.90;;
2049;SDS011;8478;49.208;8.806;2023-01-25T00:44:17;14.63;;;13.13;;
2049;SDS011;8478;49.208;8.806;2023-01-25T00:46:43;13.70;;;12.30;;
2049;SDS011;8478;49.208;8.806;2023-01-25T00:49:19;15.40;;;13.90;;
2049;SDS011;8478;49.208;8.806;2023-01-25T00:51:49;15.90;;;14.40;;
2049;SDS011;8478;49.208;8.806;2023-01-25T00:54:16;17.63;;;15.83;;
2049;SDS011;8478;49.208;8.806;2023-01-25T00:56:42;14.37;;;13.17;;
2049;SDS011;8478;49.208;8.806;2023-01-25T00:59:09;16.97;;;15.40;;
2049;SDS011;8478;49.208;8.806;2023-01-25T01:01:35;15.87;;;14.37;;
2049;SDS011;8478;49.208;8.806;2023-01-25T01:04:01;15.07;;;13.57;;
2049;SDS011;8478;49.208;8.806;2023-01-25T01:06:27;14.17;;;12.80;;
2049;SDS011;8478;49.208;8.806;2023-01-25T01:08:52;14.73;;;13.43;;
2049;SDS011;8478;49.208;8.806;2023-01-25T01:11:18;15.50;;;14.10;;
2049;SDS011;8478;49.208;8.806;2023-01-25T01:13:44;15.77;;;14.33;;
2049;SDS011;8478;49.208;8.806;2023-01-25T01:16:10;14.63;;;13.13;;
2049;SDS011;8478;49.208;8.806;2023-01-25T01:18:38;13.77;;;12.40;;
2049;SDS011;8478;49.208;8.806;2023-01-25T01:21:08;13.90;;;12.60;;
2049;SDS011;8478;49.208;8.806;2023-01-25T01:23:35;14.40;;;13.10;;
2049;SDS011;8478;49.208;8.806;2023-01-25T01:26:01;18.03;;;14.70;;
2049;SDS011;8478;49.208;8.806;2023-01-25T01:28:28;16.37;;;14.80;;
2049;SDS011;8478;49.208;8.806;2023-01-25T01:31:00;15.90;;;14.40;;
2049;SDS011;8478;49.208;8.806;2023-01-25T01:33:28;16.10;;;14.50;;
2049;SDS011;8478;49.208;8.806;2023-01-25T01:35:54;15.47;;;13.87;;
2049;SDS011;8478;49.208;8.806;2023-01-25T01:38:19;14.60;;;13.10;;
2049;SDS011;8478;49.208;8.806;2023-01-25T01:40:45;15.13;;;13.63;;
2049;SDS011;8478;49.208;8.806;2023-01-25T01:43:15;15.93;;;14.40;;
2049;SDS011;8478;49.208;8.806;2023-01-25T01:48:24;15.33;;;13.93;;
2049;SDS011;8478;49.208;8.806;2023-01-25T01:50:59;15.50;;;14.00;;
2049;SDS011;8478;49.208;8.806;2023-01-25T01:53:39;15.07;;;13.47;;
2049;SDS011;8478;49.208;8.806;2023-01-25T01:56:09;13.23;;;12.10;;
2049;SDS011;8478;49.208;8.806;2023-01-25T01:58:39;15.30;;;13.80;;
2049;SDS011;8478;49.208;8.806;2023-01-25T02:01:09;14.40;;;13.10;;
2049;SDS011;8478;49.208;8.806;2023-01-25T02:03:35;15.27;;;13.87;;
2049;SDS011;8478;49.208;8.806;2023-01-25T02:06:02;13.63;;;12.30;;
2049;SDS011;8478;49.208;8.806;2023-01-25T02:08:34;12.97;;;11.87;;
2049;SDS011;8478;49.208;8.806;2023-01-25T02:11:01;13.53;;;12.33;;
2049;SDS011;8478;49.208;8.806;2023-01-25T02:13:28;15.77;;;14.37;;
2049;SDS011;8478;49.208;8.806;2023-01-25T02:15:55;14.90;;;13.30;;
2049;SDS011;8478;49.208;8.806;2023-01-25T02:18:21;14.50;;;13.23;;
2049;SDS011;8478;49.208;8.806;2023-01-25T02:20:52;14.33;;;12.90;;
2049;SDS011;8478;49.208;8.806;2023-01-25T02:23:28;14.17;;;12.77;;
2049;SDS011;8478;49.208;8.806;2023-01-25T02:25:59;13.57;;;12.27;;
2049;SDS011;8478;49.208;8.806;2023-01-25T02:31:02;14.67;;;13.17;;
2049;SDS011;8478;49.208;8.806;2023-01-25T02:33:27;13.50;;;12.10;;
2049;SDS011;8478;49.208;8.806;2023-01-25T02:35:57;14.40;;;13.10;;
2049;SDS011;8478;49.208;8.806;2023-01-25T02:38:26;12.77;;;11.67;;
2049;SDS011;8478;49.208;8.806;2023-01-25T02:40:58;14.87;;;13.47;;
2049;SDS011;8478;49.208;8.806;2023-01-25T02:43:32;15.10;;;13.73;;
2049;SDS011;8478;49.208;8.806;2023-01-25T02:46:02;15.17;;;13.57;;
2049;SDS011;8478;49.208;8.806;2023-01-25T02:48:36;16.10;;;14.60;;
2049;SDS011;8478;49.208;8.806;2023-01-25T02:51:01;16.03;;;14.27;;
2049;SDS011;8478;49.208;8.806;2023-01-25T02:53:30;14.90;;;13.63;;
2049;SDS011;8478;49.208;8.806;2023-01-25T02:55:55;15.90;;;14.30;;
2049;SDS011;8478;49.208;8.806;2023-01-25T02:58:21;14.90;;;13.40;;
2049;SDS011;8478;49.208;8.806;2023-01-25T03:00:47;14.00;;;12.60;;
2049;SDS011;8478;49.208;8.806;2023-01-25T03:03:12;15.10;;;13.00;;
2049;SDS011;8478;49.208;8.806;2023-01-25T03:05:38;13.53;;;12.23;;
2049;SDS011;8478;49.208;8.806;2023-01-25T03:08:04;14.80;;;13.30;;
2049;SDS011;8478;49.208;8.806;2023-01-25T03:10:29;14.03;;;12.67;;
2049;SDS011;8478;49.208;8.806;2023-01-25T03:12:55;14.40;;;13.20;;
2049;SDS011;8478;49.208;8.806;2023-01-25T03:15:21;15.00;;;13.60;;
2049;SDS011;8478;49.208;8.806;2023-01-25T03:17:46;15.40;;;13.87;;
2049;SDS011;8478;49.208;8.806;2023-01-25T03:20:12;14.20;;;12.80;;
2049;SDS011;8478;49.208;8.806;2023-01-25T03:22:38;14.40;;;13.20;;
2049;SDS011;8478;49.208;8.806;2023-01-25T03:25:03;14.03;;;12.53;;
2049;SDS011;8478;49.208;8.806;2023-01-25T03:27:29;14.57;;;13.10;;
2049;SDS011;8478;49.208;8.806;2023-01-25T03:29:55;15.93;;;14.53;;
2049;SDS011;8478;49.208;8.806;2023-01-25T03:32:21;14.23;;;12.73;;
2049;SDS011;8478;49.208;8.806;2023-01-25T03:34:47;13.20;;;12.00;;
2049;SDS011;8478;49.208;8.806;2023-01-25T03:37:12;14.80;;;12.20;;
2049;SDS011;8478;49.208;8.806;2023-01-25T03:39:38;13.03;;;11.83;;
2049;SDS011;8478;49.208;8.806;2023-01-25T03:42:04;14.10;;;12.70;;
2049;SDS011;8478;49.208;8.806;2023-01-25T03:44:30;12.40;;;11.20;;
2049;SDS011;8478;49.208;8.806;2023-01-25T03:46:56;11.90;;;11.00;;
2049;SDS011;8478;49.208;8.806;2023-01-25T03:49:21;13.00;;;11.80;;
2049;SDS011;8478;49.208;8.806;2023-01-25T03:51:47;13.60;;;12.30;;
2049;SDS011;8478;49.208;8.806;2023-01-25T03:54:13;13.00;;;11.80;;
2049;SDS011;8478;49.208;8.806;2023-01-25T03:56:39;13.47;;;12.37;;
2049;SDS011;8478;49.208;8.806;2023-01-25T03:59:05;13.83;;;12.40;;
2049;SDS011;8478;49.208;8.806;2023-01-25T04:01:31;12.47;;;11.50;;
2049;SDS011;8478;49.208;8.806;2023-01-25T04:03:56;12.97;;;11.70;;
2049;SDS011;8478;49.208;8.806;2023-01-25T04:06:22;13.97;;;12.77;;
2049;SDS011;8478;49.208;8.806;2023-01-25T04:08:47;14.40;;;13.10;;
2049;SDS011;8478;49.208;8.806;2023-01-25T04:11:13;12.70;;;11.60;;
2049;SDS011;8478;49.208;8.806;2023-01-25T04:13:39;12.27;;;11.10;;
2049;SDS011;8478;49.208;8.806;2023-01-25T04:16:05;11.73;;;10.73;;
2049;SDS011;8478;49.208;8.806;2023-01-25T04:18:32;12.83;;;11.50;;
2049;SDS011;8478;49.208;8.806;2023-01-25T04:20:57;12.23;;;11.03;;
2049;SDS011;8478;49.208;8.806;2023-01-25T04:23:24;12.17;;;11.07;;
2049;SDS011;8478;49.208;8.806;2023-01-25T04:25:57;13.70;;;12.40;;
2049;SDS011;8478;49.208;8.806;2023-01-25T04:28:29;12.80;;;11.50;;
2049;SDS011;8478;49.208;8.806;2023-01-25T04:30:55;13.27;;;12.07;;
2049;SDS011;8478;49.208;8.806;2023-01-25T04:33:21;13.10;;;11.73;;
2049;SDS011;8478;49.208;8.806;2023-01-25T04:35:47;13.20;;;12.00;;
2049;SDS011;8478;49.208;8.806;2023-01-25T04:38:12;12.17;;;11.07;;
2049;SDS011;8478;49.208;8.806;2023-01-25T04:40:38;12.03;;;11.03;;
2049;SDS011;8478;49.208;8.806;2023-01-25T04:43:04;12.67;;;11.37;;
2049;SDS011;8478;49.208;8.806;2023-01-25T04:45:31;12.33;;;11.20;;
2049;SDS011;8478;49.208;8.806;2023-01-25T04:47:58;11.90;;;10.80;;
2049;SDS011;8478;49.208;8.806;2023-01-25T04:50:25;12.80;;;11.60;;
2049;SDS011;8478;49.208;8.806;2023-01-25T04:52:51;12.33;;;10.87;;
2049;SDS011;8478;49.208;8.806;2023-01-25T04:55:18;12.00;;;10.90;;
2049;SDS011;8478;49.208;8.806;2023-01-25T04:57:43;11.80;;;10.70;;
2049;SDS011;8478;49.208;8.806;2023-01-25T05:00:10;11.93;;;10.83;;
2049;SDS011;8478;49.208;8.806;2023-01-25T05:02:36;13.30;;;12.10;;
2049;SDS011;8478;49.208;8.806;2023-01-25T05:05:03;12.20;;;11.10;;
2049;SDS011;8478;49.208;8.806;2023-01-25T05:07:29;12.47;;;11.17;;
2049;SDS011;8478;49.208;8.806;2023-01-25T05:09:55;11.70;;;10.60;;
2049;SDS011;8478;49.208;8.806;2023-01-25T05:12:21;12.97;;;11.37;;
2049;SDS011;8478;49.208;8.806;2023-01-25T05:14:46;11.63;;;10.63;;
2049;SDS011;8478;49.208;8.806;2023-01-25T05:17:12;11.10;;;10.10;;
2049;SDS011;8478;49.208;8.806;2023-01-25T05:19:38;11.33;;;10.23;;
2049;SDS011;8478;49.208;8.806;2023-01-25T05:22:04;12.70;;;11.40;;
2049;SDS011;8478;49.208;8.806;2023-01-25T05:24:35;12.37;;;11.27;;
2049;SDS011;8478;49.208;8.806;2023-01-25T05:27:01;11.90;;;10.73;;
2049;SDS011;8478;49.208;8.806;2023-01-25T05:29:40;11.13;;;10.13;;
2049;SDS011;8478;49.208;8.806;2023-01-25T05:32:11;12.07;;;10.87;;
2049;SDS011;8478;49.208;8.806;2023-01-25T05:34:39;11.77;;;10.73;;
2049;SDS011;8478;49.208;8.806;2023-01-25T05:37:06;11.57;;;10.57;;
2049;SDS011;8478;49.208;8.806;2023-01-25T05:39:33;11.50;;;10.40;;
2049;SDS011;8478;49.208;8.806;2023-01-25T05:41:59;12.23;;;11.13;;
2049;SDS011;8478;49.208;8.806;2023-01-25T05:44:24;12.53;;;11.43;;
2049;SDS011;8478;49.208;8.806;2023-01-25T05:46:50;12.50;;;11.40;;
2049;SDS011;8478;49.208;8.806;2023-01-25T05:49:16;12.07;;;10.97;;
2049;SDS011;8478;49.208;8.806;2023-01-25T05:51:42;13.20;;;11.37;;
2049;SDS011;8478;49.208;8.806;2023-01-25T05:54:11;12.73;;;11.43;;
2049;SDS011;8478;49.208;8.806;2023-01-25T05:56:38;12.97;;;11.20;;
2049;SDS011;8478;49.208;8.806;2023-01-25T05:59:04;12.40;;;11.20;;
2049;SDS011;8478;49.208;8.806;2023-01-25T06:01:29;13.10;;;11.87;;
2049;SDS011;8478;49.208;8.806;2023-01-25T06:03:55;13.50;;;12.00;;
2049;SDS011;8478;49.208;8.806;2023-01-25T06:06:22;13.23;;;11.93;;
2049;SDS011;8478;49.208;8.806;2023-01-25T06:08:48;14.13;;;12.87;;
2049;SDS011;8478;49.208;8.806;2023-01-25T06:11:15;12.93;;;11.57;;
2049;SDS011;8478;49.208;8.806;2023-01-25T06:13:43;13.87;;;12.60;;
2049;SDS011;8478;49.208;8.806;2023-01-25T06:16:09;13.43;;;12.13;;
2049;SDS011;8478;49.208;8.806;2023-01-25T06:18:35;13.47;;;12.27;;
2049;SDS011;8478;49.208;8.806;2023-01-25T06:21:01;13.83;;;12.53;;
2049;SDS011;8478;49.208;8.806;2023-01-25T06:23:27;14.07;;;12.73;;
2049;SDS011;8478;49.208;8.806;2023-01-25T06:25:57;13.70;;;12.40;;
2049;SDS011;8478;49.208;8.806;2023-01-25T06:28:23;14.13;;;12.67;;
2049;SDS011;8478;49.208;8.806;2023-01-25T06:30:49;14.60;;;13.10;;
2049;SDS011;8478;49.208;8.806;2023-01-25T06:33:14;12.90;;;11.70;;
2049;SDS011;8478;49.208;8.806;2023-01-25T06:35:40;14.70;;;13.23;;
2049;SDS011;8478;49.208;8.806;2023-01-25T06:38:07;13.37;;;12.10;;
2049;SDS011;8478;49.208;8.806;2023-01-25T06:40:33;15.87;;;13.63;;
2049;SDS011;8478;49.208;8.806;2023-01-25T06:43:08;14.47;;;12.90;;
2049;SDS011;8478;49.208;8.806;2023-01-25T06:45:35;16.50;;;14.70;;
2049;SDS011;8478;49.208;8.806;2023-01-25T06:48:01;18.03;;;14.07;;
2049;SDS011;8478;49.208;8.806;2023-01-25T06:50:26;14.70;;;13.17;;
2049;SDS011;8478;49.208;8.806;2023-01-25T06:52:52;14.07;;;12.60;;
2049;SDS011;8478;49.208;8.806;2023-01-25T06:55:19;14.77;;;13.27;;
2049;SDS011;8478;49.208;8.806;2023-01-25T06:57:45;15.03;;;13.63;;
2049;SDS011;8478;49.208;8.806;2023-01-25T07:00:11;14.47;;;13.00;;
2049;SDS011;8478;49.208;8.806;2023-01-25T07:02:37;15.17;;;13.67;;
2049;SDS011;8478;49.208;8.806;2023-01-25T07:05:03;14.00;;;12.77;;
2049;SDS011;8478;49.208;8.806;2023-01-25T07:07:29;18.60;;;16.17;;
2049;SDS011;8478;49.208;8.806;2023-01-25T07:09:55;18.07;;;15.53;;
2049;SDS011;8478;49.208;8.806;2023-01-25T07:12:20;15.13;;;13.70;;
2049;SDS011;8478;49.208;8.806;2023-01-25T07:14:46;15.10;;;13.57;;
2049;SDS011;8478;49.208;8.806;2023-01-25T07:17:13;16.90;;;15.20;;
2049;SDS011;8478;49.208;8.806;2023-01-25T07:19:39;16.50;;;14.90;;
2049;SDS011;8478;49.208;8.806;2023-01-25T07:22:05;16.73;;;15.13;;
2049;SDS011;8478;49.208;8.806;2023-01-25T07:24:31;16.17;;;13.97;;
2049;SDS011;8478;49.208;8.806;2023-01-25T07:26:56;17.13;;;15.43;;
2049;SDS011;8478;49.208;8.806;2023-01-25T07:29:22;15.73;;;14.07;;
2049;SDS011;8478;49.208;8.806;2023-01-25T07:31:48;16.57;;;14.87;;
2049;SDS011;8478;49.208;8.806;2023-01-25T07:34:14;14.37;;;12.87;;
2049;SDS011;8478;49.208;8.806;2023-01-25T07:36:39;16.03;;;14.40;;
2049;SDS011;8478;49.208;8.806;2023-01-25T07:39:08;16.17;;;14.60;;
2049;SDS011;8478;49.208;8.806;2023-01-25T07:41:35;16.20;;;14.10;;
2049;SDS011;8478;49.208;8.806;2023-01-25T07:44:02;13.13;;;11.83;;
2049;SDS011;8478;49.208;8.806;2023-01-25T07:46:28;14.70;;;13.40;;
2049;SDS011;8478;49.208;8.806;2023-01-25T07:48:54;14.97;;;13.60;;
2049;SDS011;8478;49.208;8.806;2023-01-25T07:51:21;14.23;;;12.83;;
2049;SDS011;8478;49.208;8.806;2023-01-25T07:53:50;16.17;;;14.50;;
2049;SDS011;8478;49.208;8.806;2023-01-25T07:56:18;14.90;;;13.50;;
2049;SDS011;8478;49.208;8.806;2023-01-25T07:58:45;15.93;;;14.47;;
2049;SDS011;8478;49.208;8.806;2023-01-25T08:01:12;15.47;;;13.90;;
2049;SDS011;8478;49.208;8.806;2023-01-25T08:03:39;15.80;;;14.17;;
2049;SDS011;8478;49.208;8.806;2023-01-25T08:06:05;14.73;;;13.20;;
2049;SDS011;8478;49.208;8.806;2023-01-25T08:08:32;16.87;;;15.17;;
2049;SDS011;8478;49.208;8.806;2023-01-25T08:11:07;15.63;;;13.97;;
2049;SDS011;8478;49.208;8.806;2023-01-25T08:13:37;16.40;;;14.90;;
2049;SDS011;8478;49.208;8.806;2023-01-25T08:16:03;16.37;;;14.70;;
2049;SDS011;8478;49.208;8.806;2023-01-25T08:18:29;15.27;;;13.73;;
2049;SDS011;8478;49.208;8.806;2023-01-25T08:20:57;15.43;;;13.67;;
2049;SDS011;8478;49.208;8.806;2023-01-25T08:23:23;14.53;;;13.13;;
2049;SDS011;8478;49.208;8.806;2023-01-25T08:25:49;14.37;;;12.97;;
2049;SDS011;8478;49.208;8.806;2023-01-25T08:28:15;13.97;;;12.53;;
2049;SDS011;8478;49.208;8.806;2023-01-25T08:30:41;14.27;;;12.87;;
2049;SDS011;8478;49.208;8.806;2023-01-25T08:33:06;15.23;;;13.93;;
2049;SDS011;8478;49.208;8.806;2023-01-25T08:35:32;15.77;;;14.27;;
2049;SDS011;8478;49.208;8.806;2023-01-25T08:38:00;17.23;;;15.43;;
2049;SDS011;8478;49.208;8.806;2023-01-25T08:40:26;17.07;;;15.47;;
2049;SDS011;8478;49.208;8.806;2023-01-25T08:42:52;17.73;;;15.00;;
2049;SDS011;8478;49.208;8.806;2023-01-25T08:45:18;17.43;;;15.73;;
2049;SDS011;8478;49.208;8.806;2023-01-25T08:47:43;15.60;;;14.13;;
2049;SDS011;8478;49.208;8.806;2023-01-25T08:50:09;15.73;;;14.33;;
2049;SDS011;8478;49.208;8.806;2023-01-25T08:52:35;16.40;;;14.80;;
2049;SDS011;8478;49.208;8.806;2023-01-25T08:55:01;15.83;;;14.23;;
2049;SDS011;8478;49.208;8.806;2023-01-25T08:57:27;16.20;;;14.73;;
2049;SDS011;8478;49.208;8.806;2023-01-25T08:59:52;15.47;;;13.33;;
2049;SDS011;8478;49.208;8.806;2023-01-25T09:02:18;17.37;;;14.30;;
2049;SDS011;8478;49.208;8.806;2023-01-25T09:04:45;14.60;;;13.30;;
2049;SDS011;8478;49.208;8.806;2023-01-25T09:07:11;15.90;;;14.20;;
2049;SDS011;8478;49.208;8.806;2023-01-25T09:09:36;15.60;;;14.10;;
2049;SDS011;8478;49.208;8.806;2023-01-25T09:12:02;14.73;;;13.33;;
2049;SDS011;8478;49.208;8.806;2023-01-25T09:14:28;14.23;;;12.73;;
2049;SDS011;8478;49.208;8.806;2023-01-25T09:16:54;13.20;;;12.00;;
2049;SDS011;8478;49.208;8.806;2023-01-25T09:19:19;14.10;;;12.70;;
2049;SDS011;8478;49.208;8.806;2023-01-25T09:21:45;14.47;;;12.53;;
2049;SDS011;8478;49.208;8.806;2023-01-25T09:24:12;14.10;;;12.73;;
2049;SDS011;8478;49.208;8.806;2023-01-25T09:26:39;13.17;;;11.97;;
2049;SDS011;8478;49.208;8.806;2023-01-25T09:29:06;14.23;;;12.20;;
2049;SDS011;8478;49.208;8.806;2023-01-25T09:31:32;15.07;;;13.53;;
2049;SDS011;8478;49.208;8.806;2023-01-25T09:33:58;15.73;;;14.23;;
2049;SDS011;8478;49.208;8.806;2023-01-25T09:36:24;13.80;;;12.40;;
2049;SDS011;8478;49.208;8.806;2023-01-25T09:38:50;16.00;;;14.40;;
2049;SDS011;8478;49.208;8.806;2023-01-25T09:46:40;15.17;;;13.77;;
2049;SDS011;8478;49.208;8.806;2023-01-25T09:52:25;15.03;;;13.60;;
2049;SDS011;8478;49.208;8.806;2023-01-25T09:54:51;13.87;;;12.57;;
2049;SDS011;8478;49.208;8.806;2023-01-25T09:57:23;16.53;;;14.90;;
2049;SDS011;8478;49.208;8.806;2023-01-25T09:59:56;14.00;;;12.90;;
2049;SDS011;8478;49.208;8.806;2023-01-25T10:02:43;14.07;;;12.77;;
2049;SDS011;8478;49.208;8.806;2023-01-25T10:05:26;15.00;;;13.43;;
2049;SDS011;8478;49.208;8.806;2023-01-25T10:08:02;13.47;;;12.17;;
2049;SDS011;8478;49.208;8.806;2023-01-25T10:10:34;13.93;;;12.53;;
2049;SDS011;8478;49.208;8.806;2023-01-25T10:13:07;13.77;;;12.43;;
2049;SDS011;8478;49.208;8.806;2023-01-25T10:15:39;11.77;;;10.03;;
2049;SDS011;8478;49.208;8.806;2023-01-25T10:18:19;17.43;;;13.33;;
2049;SDS011;8478;49.208;8.806;2023-01-25T10:31:10;16.43;;;12.10;;
2049;SDS011;8478;49.208;8.806;2023-01-25T10:33:45;15.03;;;12.90;;
2049;SDS011;8478;49.208;8.806;2023-01-25T10:36:17;13.20;;;11.80;;
2049;SDS011;8478;49.208;8.806;2023-01-25T10:38:48;14.93;;;12.13;;
2049;SDS011;8478;49.208;8.806;2023-01-25T10:43:42;13.60;;;12.23;;
2049;SDS011;8478;49.208;8.806;2023-01-25T10:46:18;12.93;;;11.13;;
2049;SDS011;8478;49.208;8.806;2023-01-25T10:48:47;12.50;;;11.30;;
2049;SDS011;8478;49.208;8.806;2023-01-25T10:51:30;13.47;;;12.13;;
2049;SDS011;8478;49.208;8.806;2023-01-25T10:53:58;12.57;;;11.37;;
2049;SDS011;8478;49.208;8.806;2023-01-25T10:56:27;13.97;;;12.57;;
2049;SDS011;8478;49.208;8.806;2023-01-25T10:59:04;13.67;;;12.37;;
2049;SDS011;8478;49.208;8.806;2023-01-25T11:01:42;15.33;;;12.90;;
2049;SDS011;8478;49.208;8.806;2023-01-25T11:07:09;14.50;;;12.83;;
2049;SDS011;8478;49.208;8.806;2023-01-25T11:09:50;15.50;;;12.70;;
2049;SDS011;8478;49.208;8.806;2023-01-25T11:12:17;13.60;;;12.20;;
2049;SDS011;8478;49.208;8.806;2023-01-25T11:14:45;14.73;;;13.13;;
2049;SDS011;8478;49.208;8.806;2023-01-25T11:22:50;14.60;;;13.13;;
2049;SDS011;8478;49.208;8.806;2023-01-25T11:27:50;14.30;;;12.90;;
2049;SDS011;8478;49.208;8.806;2023-01-25T11:30:16;13.97;;;12.53;;
2049;SDS011;8478;49.208;8.806;2023-01-25T11:32:45;17.13;;;15.30;;
2049;SDS011;8478;49.208;8.806;2023-01-25T11:35:12;47.17;;;19.50;;
2049;SDS011;8478;49.208;8.806;2023-01-25T11:46:06;59.00;;;23.10;;
2049;SDS011;8478;49.208;8.806;2023-01-25T11:54:04;51.93;;;19.97;;
2049;SDS011;8478;49.208;8.806;2023-01-25T12:10:38;50.17;;;23.57;;
2049;SDS011;8478;49.208;8.806;2023-01-25T12:13:14;33.30;;;20.40;;
2049;SDS011;8478;49.208;8.806;2023-01-25T12:27:12;21.17;;;15.97;;
2049;SDS011;8478;49.208;8.806;2023-01-25T12:30:15;19.30;;;15.17;;
2049;SDS011;8478;49.208;8.806;2023-01-25T12:32:54;28.57;;;15.03;;
2049;SDS011;8478;49.208;8.806;2023-01-25T12:40:58;19.33;;;14.90;;
2049;SDS011;8478;49.208;8.806;2023-01-25T12:43:32;19.43;;;14.97;;
2049;SDS011;8478;49.208;8.806;2023-01-25T12:46:09;19.10;;;13.80;;
2049;SDS011;8478;49.208;8.806;2023-01-25T12:48:58;18.00;;;14.30;;
2049;SDS011;8478;49.208;8.806;2023-01-25T12:51:33;19.40;;;13.93;;
2049;SDS011;8478;49.208;8.806;2023-01-25T12:54:02;14.93;;;13.10;;
2049;SDS011;8478;49.208;8.806;2023-01-25T12:56:48;16.90;;;14.17;;
2049;SDS011;8478;49.208;8.806;2023-01-25T12:59:32;18.67;;;15.27;;
2049;SDS011;8478;49.208;8.806;2023-01-25T13:10:23;18.20;;;16.30;;
2049;SDS011;8478;49.208;8.806;2023-01-25T13:12:55;17.30;;;15.30;;
2049;SDS011;8478;49.208;8.806;2023-01-25T13:15:40;17.20;;;15.57;;
2049;SDS011;8478;49.208;8.806;2023-01-25T13:20:52;16.40;;;14.90;;
2049;SDS011;8478;49.208;8.806;2023-01-25T13:34:10;18.17;;;15.67;;
2049;SDS011;8478;49.208;8.806;2023-01-25T13:36:55;16.60;;;14.00;;
2049;SDS011;8478;49.208;8.806;2023-01-25T13:41:59;18.67;;;15.63;;
2049;SDS011;8478;49.208;8.806;2023-01-25T13:44:29;16.27;;;14.67;;
2049;SDS011;8478;49.208;8.806;2023-01-25T13:46:57;14.87;;;13.27;;
2049;SDS011;8478;49.208;8.806;2023-01-25T13:49:36;15.23;;;13.57;;
2049;SDS011;8478;49.208;8.806;2023-01-25T13:52:05;14.43;;;13.10;;
2049;SDS011;8478;49.208;8.806;2023-01-25T13:54:31;16.60;;;14.77;;
2049;SDS011;8478;49.208;8.806;2023-01-25T14:00:06;14.97;;;13.60;;
2049;SDS011;8478;49.208;8.806;2023-01-25T14:02:38;14.93;;;13.23;;
2049;SDS011;8478;49.208;8.806;2023-01-25T14:05:16;12.70;;;11.50;;
2049;SDS011;8478;49.208;8.806;2023-01-25T14:07:46;12.83;;;11.63;;
2049;SDS011;8478;49.208;8.806;2023-01-25T14:10:16;15.20;;;13.50;;
2049;SDS011;8478;49.208;8.806;2023-01-25T14:12:47;13.40;;;12.00;;
2049;SDS011;8478;49.208;8.806;2023-01-25T14:18:54;14.00;;;12.60;;
2049;SDS011;8478;49.208;8.806;2023-01-25T14:21:08;13.10;;;11.80;;
2049;SDS011;8478;49.208;8.806;2023-01-25T14:23:34;13.33;;;12.10;;
2049;SDS011;8478;49.208;8.806;2023-01-25T14:26:00;12.50;;;11.30;;
2049;SDS011;8478;49.208;8.806;2023-01-25T14:28:26;14.57;;;11.87;;
2049;SDS011;8478;49.208;8.806;2023-01-25T14:30:54;12.13;;;10.93;;
2049;SDS011;8478;49.208;8.806;2023-01-25T14:33:26;11.93;;;10.83;;
2049;SDS011;8478;49.208;8.806;2023-01-25T14:35:54;12.10;;;10.90;;
2049;SDS011;8478;49.208;8.806;2023-01-25T14:38:37;13.47;;;10.93;;
2049;SDS011;8478;49.208;8.806;2023-01-25T14:41:21;14.23;;;11.47;;
2049;SDS011;8478;49.208;8.806;2023-01-25T14:43:54;12.00;;;10.80;;
2049;SDS011;8478;49.208;8.806;2023-01-25T14:46:28;11.60;;;10.43;;
2049;SDS011;8478;49.208;8.806;2023-01-25T14:49:38;12.00;;;10.90;;
2049;SDS011;8478;49.208;8.806;2023-01-25T14:54:47;12.97;;;11.67;;
2049;SDS011;8478;49.208;8.806;2023-01-25T14:57:35;12.50;;;11.20;;
2049;SDS011;8478;49.208;8.806;2023-01-25T15:00:04;11.90;;;10.70;;
2049;SDS011;8478;49.208;8.806;2023-01-25T15:02:48;14.70;;;13.17;;
2049;SDS011;8478;49.208;8.806;2023-01-25T15:05:21;12.40;;;11.13;;
2049;SDS011;8478;49.208;8.806;2023-01-25T15:07:52;15.80;;;12.70;;
2049;SDS011;8478;49.208;8.806;2023-01-25T15:12:54;14.40;;;12.97;;
2049;SDS011;8478;49.208;8.806;2023-01-25T15:15:25;13.40;;;12.10;;
2049;SDS011;8478;49.208;8.806;2023-01-25T15:17:52;14.30;;;12.90;;
2049;SDS011;8478;49.208;8.806;2023-01-25T15:20:38;14.70;;;13.23;;
2049;SDS011;8478;49.208;8.806;2023-01-25T15:23:21;20.53;;;13.83;;
2049;SDS011;8478;49.208;8.806;2023-01-25T15:25:55;13.63;;;12.33;;
2049;SDS011;8478;49.208;8.806;2023-01-25T15:28:23;14.10;;;12.70;;
2049;SDS011;8478;49.208;8.806;2023-01-25T15:30:50;14.57;;;13.00;;
2049;SDS011;8478;49.208;8.806;2023-01-25T15:33:17;13.23;;;11.93;;
2049;SDS011;8478;49.208;8.806;2023-01-25T15:35:46;16.67;;;13.70;;
2049;SDS011;8478;49.208;8.806;2023-01-25T15:38:12;14.63;;;12.63;;
2049;SDS011;8478;49.208;8.806;2023-01-25T15:40:39;12.93;;;11.70;;
2049;SDS011;8478;49.208;8.806;2023-01-25T15:43:07;14.47;;;12.93;;
2049;SDS011;8478;49.208;8.806;2023-01-25T15:45:34;14.40;;;12.17;;
2049;SDS011;8478;49.208;8.806;2023-01-25T15:48:00;13.60;;;12.10;;
2049;SDS011;8478;49.208;8.806;2023-01-25T15:50:26;14.73;;;13.23;;
2049;SDS011;8478;49.208;8.806;2023-01-25T15:52:53;16.37;;;13.60;;
2049;SDS011;8478;49.208;8.806;2023-01-25T15:55:18;16.07;;;14.47;;
2049;SDS011;8478;49.208;8.806;2023-01-25T15:57:44;17.10;;;14.73;;
2049;SDS011;8478;49.208;8.806;2023-01-25T16:00:17;14.70;;;13.20;;
2049;SDS011;8478;49.208;8.806;2023-01-25T16:02:45;16.00;;;14.43;;
2049;SDS011;8478;49.208;8.806;2023-01-25T16:05:11;18.23;;;15.07;;
2049;SDS011;8478;49.208;8.806;2023-01-25T16:07:37;17.03;;;15.07;;
2049;SDS011;8478;49.208;8.806;2023-01-25T16:10:05;15.73;;;14.13;;
2049;SDS011;8478;49.208;8.806;2023-01-25T16:12:35;15.90;;;13.80;;
2049;SDS011;8478;49.208;8.806;2023-01-25T16:15:00;15.43;;;13.83;;
2049;SDS011;8478;49.208;8.806;2023-01-25T16:17:26;15.83;;;14.27;;
2049;SDS011;8478;49.208;8.806;2023-01-25T16:19:54;15.50;;;13.70;;
2049;SDS011;8478;49.208;8.806;2023-01-25T16:22:20;17.00;;;14.30;;
2049;SDS011;8478;49.208;8.806;2023-01-25T16:24:45;15.63;;;13.93;;
2049;SDS011;8478;49.208;8.806;2023-01-25T16:27:13;16.30;;;14.13;;
2049;SDS011;8478;49.208;8.806;2023-01-25T16:29:44;16.10;;;14.60;;
2049;SDS011;8478;49.208;8.806;2023-01-25T16:32:10;18.03;;;15.67;;
2049;SDS011;8478;49.208;8.806;2023-01-25T16:34:36;16.53;;;14.93;;
2049;SDS011;8478;49.208;8.806;2023-01-25T16:37:02;17.10;;;14.83;;
2049;SDS011;8478;49.208;8.806;2023-01-25T16:39:28;15.77;;;14.20;;
2049;SDS011;8478;49.208;8.806;2023-01-25T16:41:56;15.63;;;14.00;;
2049;SDS011;8478;49.208;8.806;2023-01-25T16:44:22;15.67;;;14.00;;
2049;SDS011;8478;49.208;8.806;2023-01-25T16:46:47;15.53;;;13.93;;
2049;SDS011;8478;49.208;8.806;2023-01-25T16:49:15;17.10;;;14.00;;
2049;SDS011;8478;49.208;8.806;2023-01-25T16:51:46;16.10;;;14.60;;
2049;SDS011;8478;49.208;8.806;2023-01-25T16:54:14;14.30;;;12.90;;
2049;SDS011;8478;49.208;8.806;2023-01-25T16:56:40;15.23;;;13.63;;
2049;SDS011;8478;49.208;8.806;2023-01-25T16:59:05;13.97;;;12.60;;